Time;durP1;ratioP1;P1;durP2;ratioP2;P2;SDS_P1;SDS_P2;PMS_P1;PMS_P2;Temp;Humidity;BMP_temperature;BMP_pressure;BME280_temperature;BME280_humidity;BME280_pressure;Samples;Min_cycle;Max_cycle;Signal;HPM_P1;HPM_P2
2023/09/18 00:01:56;;;;;;;0.52;0.40;;;;;;;;;;5057409;28;20439;-82
2023/09/18 00:04:22;;;;;;;0.30;0.30;;;;;;;;;;5054884;28;20028;-82
2023/09/18 00:06:48;;;;;;;0.20;0.10;;;;;;;;;;5069762;28;20102;-81
2023/09/18 00:09:14;;;;;;;0.20;0.17;;;;;;;;;;5052697;28;20047;-82
2023/09/18 00:11:40;;;;;;;0.20;0.00;;;;;;;;;;5065911;28;20119;-82
2023/09/18 00:14:08;;;;;;;0.30;0.30;;;;;;;;;;5047737;28;20068;-82
2023/09/18 00:16:35;;;;;;;0.20;0.13;;;;;;;;;;5062321;28;20048;-82
2023/09/18 00:19:02;;;;;;;0.20;0.13;;;;;;;;;;5052280;28;20049;-82
2023/09/18 00:21:30;;;;;;;0.63;0.30;;;;;;;;;;5051749;28;20040;-81
2023/09/18 00:23:57;;;;;;;0.20;0.13;;;;;;;;;;5068642;28;20037;-81
2023/09/18 00:26:24;;;;;;;0.28;0.20;;;;;;;;;;5067979;28;20044;-82
2023/09/18 00:28:50;;;;;;;0.20;0.10;;;;;;;;;;5050222;28;20082;-83
2023/09/18 00:31:16;;;;;;;0.35;0.32;;;;;;;;;;5051670;28;20029;-82
2023/09/18 00:33:42;;;;;;;0.20;0.08;;;;;;;;;;5048078;28;20044;-82
2023/09/18 00:36:08;;;;;;;0.20;0.10;;;;;;;;;;5070410;23;20042;-82
2023/09/18 00:38:34;;;;;;;0.20;0.15;;;;;;;;;;5025438;28;20045;-81
2023/09/18 00:41:00;;;;;;;0.40;0.40;;;;;;;;;;5008668;28;20037;-81
2023/09/18 00:43:26;;;;;;;0.20;0.10;;;;;;;;;;5026694;28;20509;-82
2023/09/18 00:45:52;;;;;;;0.20;0.10;;;;;;;;;;5010179;28;20041;-81
2023/09/18 00:48:18;;;;;;;0.30;0.30;;;;;;;;;;4993327;28;20077;-81
2023/09/18 00:50:45;;;;;;;0.73;0.50;;;;;;;;;;5010743;28;20030;-81
2023/09/18 00:53:14;;;;;;;0.20;0.10;;;;;;;;;;4990708;28;20045;-82
2023/09/18 00:55:43;;;;;;;0.20;0.10;;;;;;;;;;5009974;28;20097;-83
2023/09/18 00:58:10;;;;;;;0.20;0.13;;;;;;;;;;5002434;28;20062;-82
2023/09/18 01:00:37;;;;;;;0.43;0.20;;;;;;;;;;5004649;28;20112;-84
2023/09/18 01:03:03;;;;;;;0.20;0.10;;;;;;;;;;5010185;28;20402;-83
2023/09/18 01:05:31;;;;;;;0.20;0.20;;;;;;;;;;4994016;28;20577;-83
2023/09/18 01:07:58;;;;;;;0.28;0.20;;;;;;;;;;5002153;28;20038;-81
2023/09/18 01:10:24;;;;;;;0.20;0.10;;;;;;;;;;4991139;28;20049;-81
2023/09/18 01:13:05;;;;;;;0.20;0.10;;;;;;;;;;4987549;28;20042;-81
2023/09/18 01:15:35;;;;;;;0.30;0.22;;;;;;;;;;4994327;28;20041;-81
2023/09/18 01:18:03;;;;;;;0.40;0.40;;;;;;;;;;5011393;28;20053;-82
2023/09/18 01:20:29;;;;;;;0.73;0.73;;;;;;;;;;5023879;28;20056;-81
2023/09/18 01:22:55;;;;;;;0.20;0.10;;;;;;;;;;4994254;28;20046;-81
2023/09/18 01:25:21;;;;;;;0.20;0.10;;;;;;;;;;4992091;28;20615;-81
2023/09/18 01:27:47;;;;;;;0.28;0.10;;;;;;;;;;5009029;28;20588;-81
2023/09/18 01:30:13;;;;;;;0.30;0.30;;;;;;;;;;4990268;28;20034;-81
2023/09/18 01:32:40;;;;;;;0.40;0.10;;;;;;;;;;4991166;28;20444;-81
2023/09/18 01:35:08;;;;;;;0.22;0.13;;;;;;;;;;5005626;28;20107;-82
2023/09/18 01:37:35;;;;;;;0.65;0.45;;;;;;;;;;4990801;28;20042;-83
2023/09/18 01:40:03;;;;;;;0.80;0.30;;;;;;;;;;4991066;28;20050;-81
2023/09/18 01:42:29;;;;;;;0.20;0.10;;;;;;;;;;5001950;28;20529;-81
2023/09/18 01:44:55;;;;;;;0.20;0.10;;;;;;;;;;5008654;28;20045;-81
2023/09/18 01:47:31;;;;;;;0.20;0.10;;;;;;;;;;5004097;28;20049;-82
2023/09/18 01:49:57;;;;;;;0.20;0.20;;;;;;;;;;5006367;28;20042;-81
2023/09/18 01:52:23;;;;;;;0.47;0.25;;;;;;;;;;4985760;28;20405;-81
2023/09/18 01:54:50;;;;;;;0.73;0.30;;;;;;;;;;4991622;28;20055;-81
2023/09/18 01:57:16;;;;;;;0.28;0.10;;;;;;;;;;4990537;28;20034;-80
2023/09/18 01:59:42;;;;;;;0.30;0.30;;;;;;;;;;4989379;28;20068;-81
2023/09/18 02:02:09;;;;;;;0.30;0.20;;;;;;;;;;5001474;28;20121;-82
2023/09/18 02:04:35;;;;;;;0.40;0.15;;;;;;;;;;4986069;28;20041;-81
2023/09/18 02:07:01;;;;;;;0.22;0.20;;;;;;;;;;5004263;28;20045;-81
2023/09/18 02:09:27;;;;;;;0.20;0.10;;;;;;;;;;5006985;28;20600;-81
2023/09/18 02:11:53;;;;;;;0.20;0.10;;;;;;;;;;5006267;28;20037;-81
2023/09/18 02:14:19;;;;;;;0.20;0.15;;;;;;;;;;4989629;28;20453;-81
2023/09/18 02:16:46;;;;;;;1.23;0.25;;;;;;;;;;5006705;28;20046;-81
2023/09/18 02:19:13;;;;;;;0.47;0.13;;;;;;;;;;5003695;28;20049;-82
2023/09/18 02:21:40;;;;;;;0.20;0.10;;;;;;;;;;5002844;28;20069;-81
2023/09/18 02:24:06;;;;;;;1.85;0.38;;;;;;;;;;5012799;28;20057;-81
2023/09/18 02:26:32;;;;;;;0.20;0.15;;;;;;;;;;5009356;28;20037;-81
2023/09/18 02:29:03;;;;;;;0.20;0.10;;;;;;;;;;4990330;28;20061;-81
2023/09/18 02:31:29;;;;;;;0.22;0.17;;;;;;;;;;4984358;28;20072;-81
2023/09/18 02:33:56;;;;;;;0.40;0.30;;;;;;;;;;5020581;28;20037;-80
2023/09/18 02:36:22;;;;;;;0.50;0.40;;;;;;;;;;5004748;28;20130;-81
2023/09/18 02:38:48;;;;;;;0.20;0.10;;;;;;;;;;5003929;28;20085;-81
2023/09/18 02:41:14;;;;;;;0.20;0.13;;;;;;;;;;5006423;28;20042;-81
2023/09/18 02:43:40;;;;;;;0.20;0.17;;;;;;;;;;5002745;28;20162;-81
2023/09/18 02:46:07;;;;;;;0.50;0.40;;;;;;;;;;5004736;28;20034;-81
2023/09/18 02:48:33;;;;;;;0.22;0.13;;;;;;;;;;5005795;28;20088;-80
2023/09/18 02:51:02;;;;;;;0.30;0.20;;;;;;;;;;4985992;28;20046;-81
2023/09/18 02:53:28;;;;;;;0.20;0.13;;;;;;;;;;4989832;28;20049;-82
2023/09/18 02:55:55;;;;;;;0.20;0.10;;;;;;;;;;5007384;28;20038;-82
2023/09/18 02:58:22;;;;;;;0.20;0.00;;;;;;;;;;4991284;28;20108;-83
2023/09/18 03:00:49;;;;;;;0.20;0.20;;;;;;;;;;5007367;28;20545;-82
2023/09/18 03:03:16;;;;;;;0.20;0.10;;;;;;;;;;4990622;28;20441;-81
2023/09/18 03:05:42;;;;;;;0.50;0.38;;;;;;;;;;4991888;28;20033;-80
2023/09/18 03:08:09;;;;;;;0.20;0.20;;;;;;;;;;4993180;28;20053;-81
2023/09/18 03:10:35;;;;;;;0.20;0.10;;;;;;;;;;4983887;28;20034;-82
2023/09/18 03:13:05;;;;;;;0.95;0.30;;;;;;;;;;5001661;28;20108;-81
2023/09/18 03:15:31;;;;;;;0.20;0.10;;;;;;;;;;4986088;28;20077;-81
2023/09/18 03:17:58;;;;;;;0.35;0.25;;;;;;;;;;5001294;28;20576;-81
2023/09/18 03:20:24;;;;;;;0.20;0.20;;;;;;;;;;4982138;28;20528;-81
2023/09/18 03:22:57;;;;;;;0.50;0.50;;;;;;;;;;4985761;28;20042;-81
2023/09/18 03:25:24;;;;;;;0.35;0.30;;;;;;;;;;5001047;28;20531;-82
2023/09/18 03:27:52;;;;;;;0.20;0.20;;;;;;;;;;4989337;28;20049;-81
2023/09/18 03:30:18;;;;;;;0.20;0.00;;;;;;;;;;5006388;28;20046;-82
2023/09/18 03:32:45;;;;;;;0.20;0.20;;;;;;;;;;4985554;28;20088;-81
2023/09/18 03:35:17;;;;;;;0.40;0.30;;;;;;;;;;4987291;28;20042;-81
2023/09/18 03:37:43;;;;;;;;;;;;;;;;;;4986241;28;20402;-81
2023/09/18 03:40:10;;;;;;;0.20;0.10;;;;;;;;;;5003681;28;19917;-82
2023/09/18 03:42:36;;;;;;;0.20;0.13;;;;;;;;;;4990186;28;20525;-82
2023/09/18 03:45:03;;;;;;;0.52;0.40;;;;;;;;;;5005789;28;20133;-81
2023/09/18 03:47:29;;;;;;;0.32;0.32;;;;;;;;;;4988545;28;20125;-85
2023/09/18 03:49:55;;;;;;;0.30;0.22;;;;;;;;;;4982884;28;20044;-82
2023/09/18 03:52:21;;;;;;;0.20;0.10;;;;;;;;;;4996444;28;20526;-81
2023/09/18 03:54:47;;;;;;;0.32;0.10;;;;;;;;;;5007077;28;20200;-81
2023/09/18 03:57:13;;;;;;;0.20;0.10;;;;;;;;;;4990892;28;20168;-81
2023/09/18 03:59:39;;;;;;;0.20;0.05;;;;;;;;;;4991535;28;20045;-81
2023/09/18 04:02:05;;;;;;;0.30;0.28;;;;;;;;;;4992872;28;20033;-81
2023/09/18 04:04:32;;;;;;;0.25;0.20;;;;;;;;;;5006152;28;20042;-82
2023/09/18 04:06:58;;;;;;;0.50;0.30;;;;;;;;;;5009294;28;20040;-81
2023/09/18 04:09:24;;;;;;;0.20;0.15;;;;;;;;;;4988428;28;20038;-81
2023/09/18 04:11:50;;;;;;;0.20;0.10;;;;;;;;;;4992642;28;20045;-82
2023/09/18 04:14:16;;;;;;;0.20;0.10;;;;;;;;;;5008099;28;20111;-81
2023/09/18 04:16:43;;;;;;;0.30;0.20;;;;;;;;;;4991957;28;20124;-81
2023/09/18 04:19:09;;;;;;;0.30;0.20;;;;;;;;;;4989133;28;20113;-81
2023/09/18 04:21:36;;;;;;;0.20;0.13;;;;;;;;;;5004010;28;20045;-81
2023/09/18 04:24:02;;;;;;;0.22;0.20;;;;;;;;;;5001045;28;20045;-81
2023/09/18 04:26:32;;;;;;;0.50;0.32;;;;;;;;;;5009399;28;20052;-82
2023/09/18 04:28:58;;;;;;;0.20;0.10;;;;;;;;;;4992647;28;20050;-81
2023/09/18 04:31:25;;;;;;;0.43;0.22;;;;;;;;;;4993269;28;20586;-82
2023/09/18 04:33:51;;;;;;;0.20;0.10;;;;;;;;;;5007215;28;20037;-81
2023/09/18 04:36:17;;;;;;;0.25;0.20;;;;;;;;;;4989943;28;20449;-83
2023/09/18 04:38:43;;;;;;;0.20;0.17;;;;;;;;;;5004793;28;20504;-81
2023/09/18 04:41:10;;;;;;;0.28;0.20;;;;;;;;;;4992378;28;20051;-81
2023/09/18 04:43:38;;;;;;;0.20;0.10;;;;;;;;;;4989343;28;20528;-81
2023/09/18 04:46:05;;;;;;;0.30;0.15;;;;;;;;;;4984405;28;20038;-81
2023/09/18 04:48:31;;;;;;;0.43;0.35;;;;;;;;;;4996424;28;20046;-81
2023/09/18 04:50:57;;;;;;;0.30;0.20;;;;;;;;;;4995445;28;20046;-82
2023/09/18 04:53:24;;;;;;;0.20;0.10;;;;;;;;;;5002267;28;20042;-81
2023/09/18 04:55:50;;;;;;;0.20;0.10;;;;;;;;;;4984924;28;20278;-80
2023/09/18 04:58:16;;;;;;;0.20;0.10;;;;;;;;;;4998292;28;20072;-81
2023/09/18 05:00:42;;;;;;;0.65;0.52;;;;;;;;;;4987705;28;20133;-81
2023/09/18 05:03:09;;;;;;;0.20;0.10;;;;;;;;;;4997182;28;20046;-81
2023/09/18 05:05:35;;;;;;;0.20;0.10;;;;;;;;;;5005161;28;20430;-81
2023/09/18 05:08:03;;;;;;;0.20;0.13;;;;;;;;;;4986693;28;20042;-81
2023/09/18 05:10:29;;;;;;;0.20;0.10;;;;;;;;;;4983633;28;20068;-82
2023/09/18 05:12:58;;;;;;;0.20;0.15;;;;;;;;;;5002949;28;20399;-82
2023/09/18 05:15:30;;;;;;;0.30;0.25;;;;;;;;;;5001308;28;20044;-81
2023/09/18 05:17:57;;;;;;;;;;;;;;;;;;5006440;28;20452;-80
2023/09/18 05:20:24;;;;;;;0.20;0.10;;;;;;;;;;5004397;28;19917;-81
2023/09/18 05:22:54;;;;;;;1.85;0.47;;;;;;;;;;5003796;28;20696;-81
2023/09/18 05:25:21;;;;;;;0.20;0.10;;;;;;;;;;4999314;28;20038;-82
2023/09/18 05:27:48;;;;;;;0.20;0.10;;;;;;;;;;4986586;28;20045;-85
2023/09/18 05:30:21;;;;;;;0.65;0.20;;;;;;;;;;4999534;28;20042;-82
2023/09/18 05:32:48;;;;;;;0.20;0.20;;;;;;;;;;4988789;28;20062;-81
2023/09/18 05:35:14;;;;;;;0.20;0.10;;;;;;;;;;4991677;28;20038;-81
2023/09/18 05:37:40;;;;;;;0.20;0.10;;;;;;;;;;5009039;28;20076;-82
2023/09/18 05:40:10;;;;;;;0.20;0.10;;;;;;;;;;5008494;28;20707;-82
2023/09/18 05:42:43;;;;;;;0.40;0.35;;;;;;;;;;4984509;28;20087;-82
2023/09/18 05:45:09;;;;;;;0.20;0.10;;;;;;;;;;5003984;28;20049;-82
2023/09/18 05:47:35;;;;;;;0.20;0.00;;;;;;;;;;5010685;28;20038;-82
2023/09/18 05:50:09;;;;;;;0.20;0.10;;;;;;;;;;5010897;28;20588;-81
2023/09/18 05:52:35;;;;;;;0.20;0.10;;;;;;;;;;5006547;28;20726;-81
2023/09/18 05:55:04;;;;;;;0.22;0.17;;;;;;;;;;5006306;28;20295;-82
2023/09/18 05:57:30;;;;;;;0.20;0.10;;;;;;;;;;5003811;28;20030;-81
2023/09/18 05:59:56;;;;;;;0.20;0.10;;;;;;;;;;5002635;28;20038;-82
2023/09/18 06:02:23;;;;;;;0.20;0.20;;;;;;;;;;5011285;28;20033;-81
2023/09/18 06:04:49;;;;;;;0.20;0.10;;;;;;;;;;5008771;28;20401;-81
2023/09/18 06:07:15;;;;;;;0.20;0.10;;;;;;;;;;4993520;28;20041;-81
2023/09/18 06:09:41;;;;;;;0.38;0.32;;;;;;;;;;5010408;28;20049;-81
2023/09/18 06:12:09;;;;;;;0.20;0.10;;;;;;;;;;5011204;28;20044;-82
2023/09/18 06:14:37;;;;;;;0.20;0.10;;;;;;;;;;4992333;28;20034;-81
2023/09/18 06:17:04;;;;;;;0.20;0.10;;;;;;;;;;4998487;28;20034;-81
2023/09/18 06:19:30;;;;;;;0.30;0.30;;;;;;;;;;5010301;28;20049;-81
2023/09/18 06:21:59;;;;;;;0.20;0.10;;;;;;;;;;5010785;28;20153;-83
2023/09/18 06:24:25;;;;;;;0.28;0.17;;;;;;;;;;5013945;28;20042;-81
2023/09/18 06:26:52;;;;;;;0.20;0.20;;;;;;;;;;5010916;28;20054;-82
2023/09/18 06:29:19;;;;;;;0.30;0.30;;;;;;;;;;4998576;28;20034;-82
2023/09/18 06:31:45;;;;;;;0.43;0.43;;;;;;;;;;5012010;28;20045;-81
2023/09/18 06:34:11;;;;;;;0.20;0.10;;;;;;;;;;4996079;28;20082;-81
2023/09/18 06:36:37;;;;;;;0.20;0.15;;;;;;;;;;5014961;23;20041;-83
2023/09/18 06:39:03;;;;;;;0.95;0.38;;;;;;;;;;5031229;28;20033;-85
2023/09/18 06:41:29;;;;;;;0.20;0.20;;;;;;;;;;5026181;28;20058;-85
2023/09/18 06:43:57;;;;;;;0.20;0.20;;;;;;;;;;5026984;28;20033;-85
2023/09/18 06:46:24;;;;;;;0.20;0.10;;;;;;;;;;5025837;28;20038;-84
2023/09/18 06:48:51;;;;;;;0.20;0.10;;;;;;;;;;5003735;28;20497;-86
2023/09/18 06:51:17;;;;;;;0.28;0.28;;;;;;;;;;4993848;28;20038;-82
2023/09/18 06:53:44;;;;;;;0.20;0.10;;;;;;;;;;4989557;28;20045;-86
2023/09/18 06:56:12;;;;;;;0.20;0.05;;;;;;;;;;4991368;28;20072;-88
2023/09/18 06:58:38;;;;;;;5.88;1.75;;;;;;;;;;4997926;28;20616;-86
2023/09/18 07:01:09;;;;;;;1.20;0.55;;;;;;;;;;4993317;28;20062;-88
2023/09/18 07:03:36;;;;;;;0.20;0.10;;;;;;;;;;4997019;28;20065;-84
2023/09/18 07:06:02;;;;;;;0.35;0.35;;;;;;;;;;4992273;28;20046;-86
2023/09/18 07:08:28;;;;;;;0.20;0.00;;;;;;;;;;5005205;28;20069;-87
2023/09/18 07:10:57;;;;;;;0.20;0.20;;;;;;;;;;4998937;28;20037;-87
2023/09/18 07:13:23;;;;;;;0.30;0.28;;;;;;;;;;5000258;28;20151;-86
2023/09/18 07:15:49;;;;;;;0.20;0.10;;;;;;;;;;5006763;28;20505;-83
2023/09/18 07:18:15;;;;;;;0.40;0.30;;;;;;;;;;4988784;28;20132;-87
2023/09/18 07:20:41;;;;;;;0.30;0.30;;;;;;;;;;5006872;28;20042;-84
2023/09/18 07:23:07;;;;;;;0.30;0.28;;;;;;;;;;5010128;28;20045;-81
2023/09/18 07:25:33;;;;;;;0.20;0.10;;;;;;;;;;5015395;28;20615;-81
2023/09/18 07:27:59;;;;;;;0.40;0.40;;;;;;;;;;4989299;28;20088;-81
2023/09/18 07:30:27;;;;;;;0.25;0.20;;;;;;;;;;4995474;28;20046;-82
2023/09/18 07:32:57;;;;;;;1.98;0.30;;;;;;;;;;5004736;28;20052;-82
2023/09/18 07:35:24;;;;;;;0.40;0.30;;;;;;;;;;5009611;28;20112;-83
2023/09/18 07:37:50;;;;;;;0.30;0.30;;;;;;;;;;5010462;28;20045;-82
2023/09/18 07:40:16;;;;;;;0.20;0.10;;;;;;;;;;4997479;28;20333;-81
2023/09/18 07:42:43;;;;;;;0.20;0.10;;;;;;;;;;5010586;28;20112;-82
2023/09/18 07:45:10;;;;;;;0.20;0.17;;;;;;;;;;5011381;28;20050;-82
2023/09/18 07:47:36;;;;;;;0.20;0.10;;;;;;;;;;5009475;28;20116;-84
2023/09/18 07:50:02;;;;;;;0.38;0.30;;;;;;;;;;5008712;28;20041;-84
2023/09/18 07:52:29;;;;;;;0.20;0.10;;;;;;;;;;5019483;28;20037;-83
2023/09/18 07:54:55;;;;;;;0.25;0.25;;;;;;;;;;5008146;28;20069;-86
2023/09/18 07:57:22;;;;;;;0.20;0.15;;;;;;;;;;5007081;28;20080;-85
2023/09/18 07:59:48;;;;;;;0.20;0.10;;;;;;;;;;5012353;28;20077;-86
2023/09/18 08:02:17;;;;;;;0.20;0.10;;;;;;;;;;5013703;28;20030;-88
2023/09/18 08:04:46;;;;;;;0.20;0.10;;;;;;;;;;5013284;28;20079;-86
2023/09/18 08:07:12;;;;;;;0.30;0.30;;;;;;;;;;4998734;28;20096;-85
2023/09/18 08:09:38;;;;;;;0.30;0.30;;;;;;;;;;5013423;28;20034;-86
2023/09/18 08:12:05;;;;;;;0.40;0.20;;;;;;;;;;4993385;28;20410;-86
2023/09/18 08:14:31;;;;;;;0.20;0.20;;;;;;;;;;4993664;28;20038;-85
2023/09/18 08:17:02;;;;;;;0.50;0.40;;;;;;;;;;5014942;28;20549;-87
2023/09/18 08:19:42;;;;;;;0.20;0.10;;;;;;;;;;5023653;28;20053;-87
2023/09/18 08:22:15;;;;;;;0.20;0.10;;;;;;;;;;5005080;28;20514;-86
2023/09/18 08:24:45;;;;;;;0.20;0.20;;;;;;;;;;5003051;28;20250;-89
2023/09/18 08:27:16;;;;;;;0.20;0.10;;;;;;;;;;4995753;28;20042;-89
2023/09/18 08:29:46;;;;;;;0.20;0.10;;;;;;;;;;4993430;28;20030;-85
2023/09/18 08:32:12;;;;;;;0.20;0.20;;;;;;;;;;4994883;28;20475;-86
2023/09/18 08:34:38;;;;;;;0.20;0.20;;;;;;;;;;4989891;28;20113;-87
2023/09/18 08:37:04;;;;;;;0.20;0.10;;;;;;;;;;4994317;28;20133;-88
2023/09/18 08:39:36;;;;;;;0.20;0.17;;;;;;;;;;5011597;28;20551;-87
2023/09/18 08:42:08;;;;;;;0.20;0.10;;;;;;;;;;5010574;28;20052;-88
2023/09/18 08:44:35;;;;;;;0.20;0.15;;;;;;;;;;4996095;28;20037;-85
2023/09/18 08:47:02;;;;;;;0.20;0.10;;;;;;;;;;4994137;28;20125;-86
2023/09/18 08:49:29;;;;;;;0.20;0.10;;;;;;;;;;5021489;28;20034;-89
2023/09/18 08:51:56;;;;;;;0.28;0.17;;;;;;;;;;5004480;28;20042;-85
2023/09/18 08:54:23;;;;;;;0.20;0.10;;;;;;;;;;5006407;28;20124;-87
2023/09/18 08:56:49;;;;;;;0.28;0.25;;;;;;;;;;5007772;28;20565;-87
2023/09/18 08:59:20;;;;;;;0.30;0.30;;;;;;;;;;5010521;28;20052;-88
2023/09/18 09:01:46;;;;;;;0.20;0.10;;;;;;;;;;5012976;28;20034;-86
2023/09/18 09:04:15;;;;;;;0.20;0.10;;;;;;;;;;4991603;28;20072;-87
2023/09/18 09:06:47;;;;;;;0.40;0.40;;;;;;;;;;5003973;28;20393;-89
2023/09/18 09:09:19;;;;;;;0.73;0.30;;;;;;;;;;4991617;28;20038;-86
2023/09/18 09:11:51;;;;;;;0.20;0.20;;;;;;;;;;5005521;28;20042;-88
2023/09/18 09:14:27;;;;;;;0.30;0.30;;;;;;;;;;4996546;28;20302;-85
2023/09/18 09:16:54;;;;;;;0.20;0.20;;;;;;;;;;4998926;28;20068;-85
2023/09/18 09:19:29;;;;;;;0.65;0.30;;;;;;;;;;4990698;28;20100;-84
2023/09/18 09:21:56;;;;;;;0.20;0.05;;;;;;;;;;4996875;28;20038;-86
2023/09/18 09:24:38;;;;;;;0.20;0.10;;;;;;;;;;5011247;28;20419;-85
2023/09/18 09:27:04;;;;;;;0.60;0.45;;;;;;;;;;5010274;28;20422;-86
2023/09/18 09:29:31;;;;;;;1.27;1.15;;;;;;;;;;4996389;28;20038;-87
2023/09/18 09:31:57;;;;;;;0.20;0.20;;;;;;;;;;4988968;28;20072;-84
2023/09/18 09:34:31;;;;;;;0.38;0.38;;;;;;;;;;4988780;28;20080;-86
2023/09/18 09:37:00;;;;;;;0.90;0.70;;;;;;;;;;4991350;28;20045;-87
2023/09/18 09:39:26;;;;;;;0.32;0.20;;;;;;;;;;5003206;28;20037;-86
2023/09/18 09:41:52;;;;;;;0.30;0.30;;;;;;;;;;5005948;28;20081;-85
2023/09/18 09:44:20;;;;;;;0.20;0.17;;;;;;;;;;4991353;28;20068;-84
2023/09/18 09:46:51;;;;;;;0.20;0.20;;;;;;;;;;5005750;28;20112;-85
2023/09/18 09:49:19;;;;;;;0.20;0.20;;;;;;;;;;4998920;28;20033;-87
2023/09/18 09:51:45;;;;;;;0.20;0.20;;;;;;;;;;5005366;28;20114;-86
2023/09/18 09:54:12;;;;;;;0.40;0.40;;;;;;;;;;4989928;28;20048;-87
2023/09/18 09:56:43;;;;;;;0.20;0.20;;;;;;;;;;5005248;28;20037;-84
2023/09/18 09:59:11;;;;;;;0.20;0.10;;;;;;;;;;4990428;28;20589;-88
2023/09/18 10:01:38;;;;;;;0.32;0.13;;;;;;;;;;5006665;28;20056;-85
2023/09/18 10:04:10;;;;;;;2.30;0.98;;;;;;;;;;5005185;28;20037;-87
2023/09/18 10:06:37;;;;;;;0.55;0.55;;;;;;;;;;5007682;28;20549;-85
2023/09/18 10:09:07;;;;;;;0.45;0.40;;;;;;;;;;5001861;28;20046;-85
2023/09/18 10:11:36;;;;;;;0.40;0.30;;;;;;;;;;5004500;28;20037;-86
2023/09/18 10:14:19;;;;;;;0.20;0.10;;;;;;;;;;5008853;28;20041;-86
2023/09/18 10:16:49;;;;;;;0.40;0.25;;;;;;;;;;5006434;28;20049;-84
2023/09/18 10:19:45;;;;;;;0.20;0.10;;;;;;;;;;5002496;28;20461;-84
2023/09/18 10:22:22;;;;;;;0.28;0.28;;;;;;;;;;4998029;28;20041;-84
2023/09/18 10:24:49;;;;;;;0.73;0.73;;;;;;;;;;4990904;28;20100;-82
2023/09/18 10:27:17;;;;;;;0.63;0.63;;;;;;;;;;4997878;28;20042;-85
2023/09/18 10:29:44;;;;;;;0.20;0.10;;;;;;;;;;4990142;28;20120;-85
2023/09/18 10:32:10;;;;;;;0.30;0.25;;;;;;;;;;5004644;28;20088;-84
2023/09/18 10:34:37;;;;;;;0.20;0.10;;;;;;;;;;4989032;28;20037;-86
2023/09/18 10:37:07;;;;;;;0.55;0.50;;;;;;;;;;5005769;28;20091;-83
2023/09/18 10:39:35;;;;;;;0.20;0.20;;;;;;;;;;5004786;28;20041;-86
2023/09/18 10:42:03;;;;;;;0.43;0.43;;;;;;;;;;5005930;28;20042;-84
2023/09/18 10:44:31;;;;;;;0.43;0.15;;;;;;;;;;5007655;28;20034;-84
2023/09/18 10:46:57;;;;;;;0.20;0.10;;;;;;;;;;5001819;28;20065;-84
2023/09/18 10:49:23;;;;;;;0.20;0.10;;;;;;;;;;5001733;28;20031;-84
2023/09/18 10:51:53;;;;;;;0.25;0.25;;;;;;;;;;5008897;28;20068;-86
2023/09/18 10:54:24;;;;;;;0.20;0.20;;;;;;;;;;4995144;28;20044;-85
2023/09/18 10:56:50;;;;;;;0.20;0.10;;;;;;;;;;5005849;28;20050;-84
2023/09/18 10:59:17;;;;;;;0.20;0.20;;;;;;;;;;4991522;28;20517;-84
2023/09/18 11:01:44;;;;;;;0.30;0.30;;;;;;;;;;5005292;28;20042;-84
2023/09/18 11:04:10;;;;;;;0.20;0.20;;;;;;;;;;4994229;28;20107;-85
2023/09/18 11:07:03;;;;;;;0.30;0.10;;;;;;;;;;4997223;28;20569;-84
2023/09/18 11:09:30;;;;;;;0.30;0.30;;;;;;;;;;5009356;28;20048;-83
2023/09/18 11:12:00;;;;;;;1.00;0.95;;;;;;;;;;5003151;28;20475;-84
2023/09/18 11:14:45;;;;;;;0.40;0.10;;;;;;;;;;5007872;28;20046;-86
2023/09/18 11:17:29;;;;;;;0.75;0.75;;;;;;;;;;5021140;28;20057;-84
2023/09/18 11:20:11;;;;;;;0.30;0.20;;;;;;;;;;4997884;28;20042;-85
2023/09/18 11:22:38;;;;;;;0.20;0.10;;;;;;;;;;5008049;28;20053;-84
2023/09/18 11:25:24;;;;;;;0.20;0.20;;;;;;;;;;5004258;28;20042;-84
2023/09/18 11:27:57;;;;;;;0.20;0.17;;;;;;;;;;4994959;28;20072;-85
2023/09/18 11:30:26;;;;;;;;;;;;;;;;;;5009141;28;20046;-83
2023/09/18 11:32:52;;;;;;;0.50;0.30;;;;;;;;;;5006568;28;19935;-83
2023/09/18 11:35:18;;;;;;;0.22;0.22;;;;;;;;;;5006842;28;20057;-83
2023/09/18 11:37:45;;;;;;;0.30;0.20;;;;;;;;;;4992080;28;20042;-85
2023/09/18 11:40:38;;;;;;;0.20;0.20;;;;;;;;;;5007696;28;20050;-84
2023/09/18 11:43:19;;;;;;;0.20;0.10;;;;;;;;;;5006662;28;20421;-83
2023/09/18 11:45:50;;;;;;;0.40;0.30;;;;;;;;;;5010048;28;20046;-81
2023/09/18 11:48:17;;;;;;;0.20;0.10;;;;;;;;;;5007899;28;20462;-84
2023/09/18 11:50:44;;;;;;;0.20;0.20;;;;;;;;;;5005744;28;20072;-85
2023/09/18 11:53:10;;;;;;;0.50;0.30;;;;;;;;;;4993683;28;20045;-86
2023/09/18 11:55:38;;;;;;;0.20;0.17;;;;;;;;;;5026094;28;20038;-82
2023/09/18 11:58:05;;;;;;;0.73;0.30;;;;;;;;;;5008914;28;20088;-87
2023/09/18 12:00:31;;;;;;;0.20;0.10;;;;;;;;;;5003285;28;20081;-85
2023/09/18 12:03:00;;;;;;;0.20;0.10;;;;;;;;;;4997092;28;20096;-84
2023/09/18 12:05:26;;;;;;;0.20;0.10;;;;;;;;;;5004349;28;20100;-83
2023/09/18 12:07:53;;;;;;;0.20;0.10;;;;;;;;;;4993814;28;20050;-85
2023/09/18 12:10:22;;;;;;;0.20;0.10;;;;;;;;;;5007175;28;20506;-81
2023/09/18 12:12:49;;;;;;;0.20;0.15;;;;;;;;;;4998145;28;20472;-86
2023/09/18 12:15:18;;;;;;;0.20;0.10;;;;;;;;;;5002742;28;20121;-81
2023/09/18 12:17:44;;;;;;;0.30;0.30;;;;;;;;;;5010357;28;20057;-83
2023/09/18 12:20:19;;;;;;;0.68;0.20;;;;;;;;;;5006915;28;20529;-82
2023/09/18 12:22:50;;;;;;;1.55;0.60;;;;;;;;;;4994731;28;20038;-84
2023/09/18 12:25:18;;;;;;;0.47;0.20;;;;;;;;;;5003791;28;20067;-85
2023/09/18 12:27:44;;;;;;;0.20;0.10;;;;;;;;;;4992952;28;20067;-85
2023/09/18 12:30:14;;;;;;;0.30;0.20;;;;;;;;;;5008837;28;20038;-85
2023/09/18 12:32:41;;;;;;;0.20;0.10;;;;;;;;;;5008371;28;20037;-84
2023/09/18 12:35:14;;;;;;;0.50;0.47;;;;;;;;;;5007235;28;20054;-85
2023/09/18 12:37:41;;;;;;;0.20;0.15;;;;;;;;;;5018687;22;20042;-81
2023/09/18 12:40:10;;;;;;;0.30;0.15;;;;;;;;;;4981709;28;20132;-84
2023/09/18 12:42:40;;;;;;;0.20;0.20;;;;;;;;;;4988113;28;20053;-79
2023/09/18 12:45:07;;;;;;;0.20;0.10;;;;;;;;;;4985919;28;20071;-82
2023/09/18 12:47:33;;;;;;;0.20;0.10;;;;;;;;;;4980953;28;20046;-80
2023/09/18 12:50:11;;;;;;;0.30;0.20;;;;;;;;;;4983101;28;20070;-82
2023/09/18 12:52:37;;;;;;;0.32;0.15;;;;;;;;;;4997097;28;20046;-81
2023/09/18 12:55:06;;;;;;;0.20;0.10;;;;;;;;;;4987727;28;20204;-82
2023/09/18 12:57:32;;;;;;;0.20;0.10;;;;;;;;;;4967773;28;20038;-80
2023/09/18 12:59:59;;;;;;;0.30;0.28;;;;;;;;;;4982048;28;20046;-80
2023/09/18 13:02:25;;;;;;;0.20;0.13;;;;;;;;;;4956882;28;20502;-80
2023/09/18 13:04:52;;;;;;;0.30;0.30;;;;;;;;;;4977231;28;20558;-81
2023/09/18 13:07:18;;;;;;;0.30;0.20;;;;;;;;;;4984291;28;20129;-82
2023/09/18 13:09:59;;;;;;;0.20;0.00;;;;;;;;;;4986772;28;20046;-79
2023/09/18 13:12:41;;;;;;;2.75;1.45;;;;;;;;;;4964372;28;20573;-84
2023/09/18 13:15:14;;;;;;;0.25;0.25;;;;;;;;;;4972586;28;20573;-86
2023/09/18 13:17:44;;;;;;;1.55;0.35;;;;;;;;;;4962468;28;20035;-83
2023/09/18 13:20:16;;;;;;;0.20;0.13;;;;;;;;;;4985912;28;20526;-79
2023/09/18 13:22:43;;;;;;;0.20;0.10;;;;;;;;;;4988443;28;20093;-81
2023/09/18 13:25:13;;;;;;;0.30;0.28;;;;;;;;;;4990014;28;20045;-85
2023/09/18 13:27:39;;;;;;;0.60;0.45;;;;;;;;;;4994321;28;20362;-81
2023/09/18 13:30:06;;;;;;;0.20;0.20;;;;;;;;;;4964585;28;20503;-83
2023/09/18 13:32:36;;;;;;;0.20;0.20;;;;;;;;;;4962409;28;20037;-82
2023/09/18 13:35:06;;;;;;;0.25;0.22;;;;;;;;;;4969165;28;20044;-79
2023/09/18 13:37:33;;;;;;;0.20;0.10;;;;;;;;;;4964050;28;20057;-83
2023/09/18 13:40:01;;;;;;;0.45;0.45;;;;;;;;;;4989981;28;20061;-82
2023/09/18 13:42:29;;;;;;;0.20;0.13;;;;;;;;;;4986831;28;20058;-81
2023/09/18 13:44:55;;;;;;;0.20;0.10;;;;;;;;;;4990723;28;20042;-82
2023/09/18 13:47:21;;;;;;;0.50;0.40;;;;;;;;;;4966923;28;20042;-79
2023/09/18 13:49:47;;;;;;;0.45;0.25;;;;;;;;;;4988333;28;20054;-82
2023/09/18 13:52:13;;;;;;;0.30;0.30;;;;;;;;;;4972540;28;21610;-85
2023/09/18 13:54:40;;;;;;;0.40;0.30;;;;;;;;;;4983215;28;20132;-81
2023/09/18 13:57:07;;;;;;;0.20;0.20;;;;;;;;;;4969965;28;20931;-81
2023/09/18 13:59:33;;;;;;;0.30;0.30;;;;;;;;;;4985353;28;20030;-82
2023/09/18 14:01:59;;;;;;;0.20;0.10;;;;;;;;;;4962253;28;20499;-80
2023/09/18 14:04:28;;;;;;;0.20;0.20;;;;;;;;;;4990977;28;20079;-80
2023/09/18 14:06:54;;;;;;;0.47;0.47;;;;;;;;;;4980372;28;20054;-80
2023/09/18 14:09:21;;;;;;;0.30;0.20;;;;;;;;;;4974803;28;20038;-84
2023/09/18 14:11:47;;;;;;;0.40;0.38;;;;;;;;;;4968470;28;20091;-83
2023/09/18 14:14:13;;;;;;;0.47;0.47;;;;;;;;;;4969974;28;20191;-81
2023/09/18 14:16:39;;;;;;;0.73;0.73;;;;;;;;;;4962210;28;21026;-80
2023/09/18 14:19:05;;;;;;;2.53;1.30;;;;;;;;;;4990491;28;20070;-80
2023/09/18 14:21:32;;;;;;;0.57;0.52;;;;;;;;;;4985863;28;20061;-81
2023/09/18 14:23:58;;;;;;;0.35;0.25;;;;;;;;;;4979987;28;20199;-82
2023/09/18 14:26:24;;;;;;;0.20;0.20;;;;;;;;;;5006266;28;20069;-79
2023/09/18 14:28:51;;;;;;;0.25;0.25;;;;;;;;;;4977750;28;20042;-82
2023/09/18 14:31:24;;;;;;;0.52;0.50;;;;;;;;;;4966910;28;20203;-85
2023/09/18 14:33:55;;;;;;;0.20;0.10;;;;;;;;;;4982863;28;20462;-87
2023/09/18 14:36:24;;;;;;;0.32;0.32;;;;;;;;;;4985701;28;20049;-87
2023/09/18 14:38:50;;;;;;;0.20;0.20;;;;;;;;;;4982683;28;20053;-84
2023/09/18 14:41:17;;;;;;;0.20;0.10;;;;;;;;;;4999986;28;20410;-83
2023/09/18 14:43:46;;;;;;;0.95;0.85;;;;;;;;;;4978732;28;20070;-83
2023/09/18 14:46:16;;;;;;;0.73;0.30;;;;;;;;;;4982262;28;20039;-82
2023/09/18 14:48:42;;;;;;;0.35;0.25;;;;;;;;;;4976113;28;20078;-83